Time;durP1;ratioP1;P1;durP2;ratioP2;P2;SDS_P1;SDS_P2;PMS_P1;PMS_P2;Temp;Humidity;BMP_temperature;BMP_pressure;BME280_temperature;BME280_humidity;BME280_pressure;Samples;Min_cycle;Max_cycle;Signal;HPM_P1;HPM_P2
2022/01/25 00:28:27;;;;;;;22.58;15.88;;;10.20;67.50;;;;;;6157737;23;19917;-77
2022/01/25 00:33:32;;;;;;;23.48;16.88;;;10.20;67.90;;;;;;6158986;23;20021;-78
2022/01/25 00:35:59;;;;;;;23.33;16.63;;;10.20;67.80;;;;;;6157748;23;20065;-76
2022/01/25 00:38:25;;;;;;;24.90;16.90;;;10.20;67.80;;;;;;6157506;23;20021;-75
2022/01/25 00:40:51;;;;;;;23.45;15.68;;;10.20;67.90;;;;;;6159343;23;20052;-76
2022/01/25 00:43:17;;;;;;;25.42;17.13;;;10.20;67.80;;;;;;6158175;23;20017;-78
2022/01/25 00:45:43;;;;;;;24.25;17.00;;;10.20;67.80;;;;;;6157811;23;20025;-77
2022/01/25 00:48:18;;;;;;;22.80;16.05;;;10.20;67.80;;;;;;6159075;23;20022;-77
2022/01/25 00:50:43;;;;;;;24.05;16.85;;;10.20;67.70;;;;;;6158695;23;20017;-77
2022/01/25 00:55:53;;;;;;;;;;;10.20;67.80;;;;;;6160012;23;20030;-75
2022/01/25 00:58:19;;;;;;;23.38;17.17;;;10.20;67.60;;;;;;6158772;23;20290;-77
2022/01/25 01:00:45;;;;;;;21.52;15.90;;;10.20;67.80;;;;;;6159211;23;20022;-77
2022/01/25 01:03:10;;;;;;;22.15;16.13;;;10.20;67.80;;;;;;6158579;23;20029;-78
2022/01/25 01:05:38;;;;;;;22.60;16.15;;;10.20;67.70;;;;;;6157507;23;20053;-76
2022/01/25 01:08:04;;;;;;;24.00;16.75;;;10.20;67.60;;;;;;6157570;23;20101;-79
2022/01/25 01:10:30;;;;;;;23.63;16.33;;;10.20;67.70;;;;;;6157092;23;20032;-78
2022/01/25 01:15:49;;;;;;;23.63;16.70;;;10.20;67.70;;;;;;6159245;23;20108;-78
2022/01/25 01:29:34;;;;;;;23.77;17.50;;;10.20;67.60;;;;;;6157462;23;20017;-75
2022/01/25 01:47:42;;;;;;;26.52;17.52;;;10.20;67.70;;;;;;6157134;23;20021;-77
2022/01/25 01:50:12;;;;;;;23.08;17.13;;;10.10;67.60;;;;;;6158683;23;20316;-78
2022/01/25 01:52:38;;;;;;;24.98;17.25;;;10.20;67.60;;;;;;6159765;23;20320;-77
2022/01/25 01:55:06;;;;;;;25.85;17.25;;;10.20;67.60;;;;;;6157022;23;20092;-77
2022/01/25 01:57:33;;;;;;;26.02;17.45;;;10.20;67.60;;;;;;6132680;23;20083;-77
2022/01/25 01:59:59;;;;;;;24.17;16.85;;;10.20;67.60;;;;;;6156765;23;20021;-78
2022/01/25 02:02:25;;;;;;;24.90;17.45;;;10.20;67.60;;;;;;6158568;23;20022;-80
2022/01/25 02:04:51;;;;;;;25.45;17.83;;;10.20;67.60;;;;;;6132607;23;20022;-76
2022/01/25 02:07:16;;;;;;;25.40;17.90;;;10.10;67.60;;;;;;6157209;23;20346;-76
2022/01/25 02:09:42;;;;;;;24.08;17.60;;;10.10;67.60;;;;;;6158007;23;20419;-79
2022/01/25 02:12:08;;;;;;;23.08;16.25;;;10.20;67.70;;;;;;6157173;23;20025;-77
2022/01/25 02:14:36;;;;;;;23.65;17.35;;;10.10;67.60;;;;;;6156636;23;20416;-78
2022/01/25 02:22:59;;;;;;;24.15;17.15;;;10.20;67.60;;;;;;6156916;23;20017;-77
2022/01/25 02:25:26;;;;;;;27.77;18.27;;;10.20;67.60;;;;;;6157467;23;20018;-77
2022/01/25 02:27:52;;;;;;;23.85;17.38;;;10.10;67.50;;;;;;6156506;23;20087;-79
2022/01/25 02:30:18;;;;;;;27.42;18.05;;;10.10;67.60;;;;;;6156765;23;20017;-78
2022/01/25 02:32:44;;;;;;;29.70;18.95;;;10.10;67.70;;;;;;6157082;23;20020;-78
2022/01/25 02:35:10;;;;;;;23.10;17.60;;;10.10;67.60;;;;;;6156814;23;20368;-77
2022/01/25 02:37:38;;;;;;;26.45;18.35;;;10.10;67.60;;;;;;6132397;23;20423;-78
2022/01/25 02:40:05;;;;;;;25.65;18.23;;;10.20;67.60;;;;;;6157292;23;20028;-76
2022/01/25 02:42:31;;;;;;;24.08;17.60;;;10.10;67.60;;;;;;6157542;23;20097;-78
2022/01/25 02:44:57;;;;;;;24.17;17.92;;;10.10;67.50;;;;;;6156836;23;20045;-78
2022/01/25 02:50:07;;;;;;;;;;;10.10;67.60;;;;;;6158201;23;20021;-77
2022/01/25 02:52:33;;;;;;;25.77;17.90;;;10.10;67.30;;;;;;6158688;23;19987;-78
2022/01/25 02:54:58;;;;;;;25.95;17.45;;;10.10;67.70;;;;;;6157074;23;20029;-78
2022/01/25 02:57:24;;;;;;;25.08;17.95;;;10.10;67.70;;;;;;6132405;23;20021;-76
2022/01/25 02:59:50;;;;;;;25.83;17.42;;;10.10;67.60;;;;;;6159662;23;20028;-77
2022/01/25 03:02:17;;;;;;;26.48;18.70;;;10.10;67.60;;;;;;6134390;23;20092;-78
2022/01/25 03:04:42;;;;;;;24.52;17.33;;;10.10;67.60;;;;;;6159933;23;20043;-78
2022/01/25 03:07:09;;;;;;;25.27;18.30;;;10.10;67.60;;;;;;6158227;23;20475;-78
2022/01/25 03:09:35;;;;;;;25.13;18.65;;;10.10;67.50;;;;;;6134502;23;20308;-77
2022/01/25 03:12:05;;;;;;;23.35;17.42;;;10.10;67.50;;;;;;6158649;23;20477;-77
2022/01/25 03:14:33;;;;;;;25.15;17.45;;;10.10;68.20;;;;;;6159442;23;20018;-76
2022/01/25 03:21:59;;;;;;;24.73;17.58;;;10.20;67.60;;;;;;6159014;23;20301;-77
2022/01/25 03:24:26;;;;;;;25.05;17.80;;;10.10;67.60;;;;;;6158464;23;20328;-76
2022/01/25 03:26:51;;;;;;;25.33;18.23;;;10.10;67.50;;;;;;6133905;23;20021;-77
2022/01/25 03:29:18;;;;;;;24.85;17.13;;;10.20;67.50;;;;;;6158392;23;20022;-76
2022/01/25 03:31:44;;;;;;;24.25;18.40;;;10.10;67.50;;;;;;6158771;23;20025;-77
2022/01/25 03:34:10;;;;;;;26.25;18.58;;;10.10;67.50;;;;;;6158620;23;20025;-76
2022/01/25 03:36:37;;;;;;;25.50;17.48;;;10.10;67.40;;;;;;6158728;23;20497;-77
2022/01/25 03:39:05;;;;;;;27.45;18.25;;;10.10;67.50;;;;;;6159447;23;20363;-77
2022/01/25 03:41:31;;;;;;;22.73;16.98;;;10.10;67.50;;;;;;6158460;23;20052;-78
2022/01/25 03:43:57;;;;;;;26.27;17.33;;;10.10;67.50;;;;;;6158240;23;20096;-77
2022/01/25 03:47:14;;;;;;;23.30;17.05;;;10.10;67.60;;;;;;6157997;23;20029;-77
2022/01/25 03:51:55;;;;;;;27.17;18.00;;;10.10;67.60;;;;;;6159946;23;20025;-77
2022/01/25 03:54:21;;;;;;;26.65;18.70;;;10.10;67.70;;;;;;6160091;23;20025;-76
2022/01/25 03:56:47;;;;;;;28.67;18.63;;;10.10;67.70;;;;;;6159361;23;20064;-79
2022/01/25 03:59:13;;;;;;;23.70;17.25;;;10.10;67.70;;;;;;6133719;23;20060;-77
2022/01/25 04:01:39;;;;;;;26.25;18.05;;;10.10;67.70;;;;;;6158227;23;20053;-76
2022/01/25 04:04:13;;;;;;;23.70;17.23;;;10.10;67.70;;;;;;6159239;23;20025;-76
2022/01/25 04:06:42;;;;;;;24.92;17.42;;;10.10;67.70;;;;;;6159144;23;20033;-76
2022/01/25 04:09:09;;;;;;;26.67;18.35;;;10.10;67.80;;;;;;6159361;23;20022;-76
2022/01/25 04:11:36;;;;;;;27.77;18.35;;;10.10;67.80;;;;;;6158880;23;20168;-78
2022/01/25 04:14:03;;;;;;;25.90;17.95;;;10.10;67.70;;;;;;6159266;23;20017;-77
2022/01/25 04:16:36;;;;;;;25.92;18.15;;;10.10;67.70;;;;;;6158035;23;20025;-76
2022/01/25 04:19:10;;;;;;;25.98;18.02;;;10.10;67.80;;;;;;6158069;23;20403;-76
2022/01/25 04:26:51;;;;;;;25.08;17.65;;;10.10;67.70;;;;;;6158226;23;20057;-76
2022/01/25 04:29:16;;;;;;;24.85;17.52;;;10.10;67.70;;;;;;6133097;23;20434;-76
2022/01/25 04:31:42;;;;;;;25.92;17.80;;;10.10;67.70;;;;;;6158683;23;20021;-77
2022/01/25 04:35:08;;;;;;;23.83;17.23;;;10.10;67.60;;;;;;6157859;23;20100;-78
2022/01/25 04:48:51;;;;;;;24.23;17.13;;;10.10;67.60;;;;;;6137133;23;20494;-78
2022/01/25 04:51:05;;;;;;;;;;;10.10;67.60;;;;;;6157740;23;20030;-77
2022/01/25 04:53:44;;;;;;;25.42;17.10;;;10.10;67.30;;;;;;6133142;23;19991;-76
2022/01/25 04:58:45;;;;;;;23.73;16.15;;;10.10;67.60;;;;;;6158847;23;20482;-78
2022/01/25 05:01:11;;;;;;;24.42;17.73;;;10.10;67.60;;;;;;6158672;23;20089;-79
2022/01/25 05:03:54;;;;;;;23.15;15.65;;;10.10;67.70;;;;;;6157126;23;20060;-76
2022/01/25 05:06:20;;;;;;;24.83;18.00;;;10.10;68.30;;;;;;6157363;23;20076;-78
2022/01/25 05:08:51;;;;;;;23.85;17.20;;;10.10;67.70;;;;;;6158919;23;20057;-76
2022/01/25 05:11:29;;;;;;;25.83;18.17;;;10.10;67.60;;;;;;6157550;23;20370;-78
2022/01/25 05:14:55;;;;;;;23.13;16.55;;;10.10;67.60;;;;;;6157128;23;20017;-77
2022/01/25 05:16:50;;;;;;;27.08;17.63;;;10.10;67.70;;;;;;6147536;23;20509;-78
2022/01/25 05:24:27;;;;;;;26.13;17.48;;;10.10;67.70;;;;;;6157335;23;20061;-77
2022/01/25 05:26:53;;;;;;;26.40;18.63;;;10.10;67.70;;;;;;6158933;23;20025;-77
2022/01/25 05:29:19;;;;;;;23.95;17.02;;;10.10;67.70;;;;;;6157770;23;20032;-78
2022/01/25 05:31:44;;;;;;;25.75;16.77;;;10.10;67.70;;;;;;6157447;23;20049;-78
2022/01/25 05:34:10;;;;;;;23.63;17.42;;;10.10;67.70;;;;;;6158419;23;20018;-76
2022/01/25 05:36:38;;;;;;;26.17;17.70;;;10.10;67.60;;;;;;6132948;23;20026;-77
2022/01/25 05:39:11;;;;;;;27.02;18.30;;;10.10;67.50;;;;;;6158055;23;20443;-76
2022/01/25 05:41:37;;;;;;;26.05;17.80;;;10.10;67.50;;;;;;6156987;23;20032;-77
2022/01/25 05:44:22;;;;;;;24.30;17.55;;;10.10;67.60;;;;;;6157374;23;20017;-77
2022/01/25 05:49:16;;;;;;;23.10;16.75;;;10.10;67.60;;;;;;6158720;23;20057;-76
2022/01/25 05:51:42;;;;;;;23.77;16.48;;;10.10;67.60;;;;;;6158979;23;20032;-76
2022/01/25 05:54:07;;;;;;;26.20;18.92;;;10.10;67.70;;;;;;6157558;23;20467;-78
2022/01/25 05:56:33;;;;;;;25.15;17.38;;;10.10;67.60;;;;;;6158055;23;20022;-77
2022/01/25 05:58:59;;;;;;;24.23;17.42;;;10.10;67.70;;;;;;6158599;23;20025;-79
2022/01/25 06:01:25;;;;;;;25.05;17.80;;;10.10;67.80;;;;;;6157293;23;20027;-78
2022/01/25 06:03:51;;;;;;;25.05;18.05;;;10.00;67.70;;;;;;6132012;23;20331;-76
2022/01/25 06:06:16;;;;;;;23.70;16.80;;;10.00;67.70;;;;;;6158985;23;20075;-77
2022/01/25 06:08:42;;;;;;;24.27;17.60;;;10.00;67.70;;;;;;6157547;23;20048;-77
2022/01/25 06:11:08;;;;;;;24.45;17.92;;;10.00;67.80;;;;;;6158158;23;20025;-77
2022/01/25 06:13:33;;;;;;;23.95;17.02;;;10.00;67.70;;;;;;6156880;23;20021;-77
2022/01/25 06:15:59;;;;;;;23.50;17.52;;;10.00;67.70;;;;;;6156618;23;20092;-78
2022/01/25 06:18:25;;;;;;;24.92;17.30;;;10.00;67.80;;;;;;6158073;23;20364;-76
2022/01/25 06:20:51;;;;;;;23.83;17.40;;;10.00;67.70;;;;;;6158744;23;20088;-78
2022/01/25 06:23:16;;;;;;;24.65;17.45;;;10.00;68.00;;;;;;6157037;23;20026;-77
2022/01/25 06:25:42;;;;;;;24.30;17.48;;;10.00;67.80;;;;;;6156758;23;20319;-76
2022/01/25 06:28:08;;;;;;;23.85;16.88;;;10.10;67.80;;;;;;6157890;23;20028;-77
2022/01/25 06:30:34;;;;;;;24.40;17.75;;;10.00;67.70;;;;;;6158068;23;20017;-79
2022/01/25 06:33:00;;;;;;;23.85;16.98;;;10.00;67.80;;;;;;6156865;23;20108;-77
2022/01/25 06:35:29;;;;;;;23.92;16.85;;;10.00;67.80;;;;;;6157878;23;20371;-77
2022/01/25 06:37:54;;;;;;;23.75;16.20;;;10.00;67.80;;;;;;6157634;23;20079;-77
2022/01/25 06:40:20;;;;;;;23.65;17.35;;;10.00;67.80;;;;;;6157465;23;20433;-77
2022/01/25 06:42:46;;;;;;;23.33;17.75;;;10.00;67.80;;;;;;6157827;23;20026;-77
2022/01/25 06:45:17;;;;;;;24.17;17.05;;;10.00;67.80;;;;;;6156692;23;20018;-80
2022/01/25 06:47:44;;;;;;;24.52;17.27;;;10.00;67.80;;;;;;6156797;23;20022;-77
2022/01/25 06:50:11;;;;;;;22.98;16.50;;;10.00;67.90;;;;;;6156808;23;20060;-77
2022/01/25 06:52:38;;;;;;;23.95;16.10;;;10.10;67.90;;;;;;6158370;23;20104;-79
2022/01/25 06:55:10;;;;;;;25.15;17.98;;;10.10;67.80;;;;;;6158925;23;20023;-78
2022/01/25 06:57:37;;;;;;;22.90;16.98;;;10.10;67.80;;;;;;6157685;23;20022;-77
2022/01/25 07:00:10;;;;;;;26.77;17.23;;;10.10;67.80;;;;;;6157623;23;20109;-77
2022/01/25 07:02:36;;;;;;;25.80;16.67;;;10.00;67.70;;;;;;6157246;23;20049;-78
2022/01/25 07:05:02;;;;;;;22.40;16.60;;;10.00;67.80;;;;;;6132255;23;20017;-78
2022/01/25 07:07:29;;;;;;;22.75;16.23;;;10.00;67.80;;;;;;6158174;23;20364;-77
2022/01/25 07:09:55;;;;;;;22.50;16.30;;;10.10;67.90;;;;;;6158546;23;20105;-77
2022/01/25 07:12:21;;;;;;;22.08;16.38;;;10.10;67.80;;;;;;6157734;23;20068;-75
2022/01/25 07:14:47;;;;;;;25.92;17.25;;;10.10;67.90;;;;;;6156744;23;20021;-77
2022/01/25 07:17:13;;;;;;;23.58;16.45;;;10.10;67.80;;;;;;6158218;23;20318;-79
2022/01/25 07:19:38;;;;;;;24.13;17.02;;;10.00;67.70;;;;;;6157772;23;20013;-77
2022/01/25 07:22:04;;;;;;;22.88;16.38;;;10.00;67.80;;;;;;6158425;23;20018;-77
2022/01/25 07:24:30;;;;;;;24.52;17.00;;;10.00;67.80;;;;;;6156113;23;20060;-77
2022/01/25 07:26:56;;;;;;;24.10;17.25;;;10.10;67.80;;;;;;6157275;23;20057;-78
2022/01/25 07:29:22;;;;;;;24.27;16.35;;;10.10;67.90;;;;;;6157696;23;20021;-77
2022/01/25 07:31:48;;;;;;;23.98;17.13;;;10.00;67.80;;;;;;6156910;23;20087;-77
2022/01/25 07:34:14;;;;;;;24.83;17.33;;;10.00;67.80;;;;;;6157674;23;20021;-78
2022/01/25 07:36:42;;;;;;;23.83;16.52;;;10.00;67.80;;;;;;6157721;23;20315;-78
2022/01/25 07:39:09;;;;;;;25.58;17.88;;;10.00;67.80;;;;;;6156531;23;20288;-77
2022/01/25 07:41:36;;;;;;;24.25;17.48;;;10.00;67.80;;;;;;6156516;23;20026;-76
2022/01/25 07:44:02;;;;;;;23.15;17.02;;;10.00;67.80;;;;;;6157602;23;20014;-77
2022/01/25 07:46:29;;;;;;;23.38;16.25;;;10.00;67.80;;;;;;6159404;23;20017;-78
2022/01/25 07:48:55;;;;;;;23.52;16.65;;;10.00;67.80;;;;;;6158770;23;20037;-77
2022/01/25 07:51:21;;;;;;;22.83;16.92;;;10.00;67.80;;;;;;6158318;23;20017;-77
2022/01/25 07:53:49;;;;;;;25.20;17.33;;;10.10;68.10;;;;;;6157995;23;20029;-77
2022/01/25 07:56:15;;;;;;;23.55;16.45;;;10.00;67.80;;;;;;6158239;23;20092;-77
2022/01/25 07:58:41;;;;;;;21.70;16.35;;;10.00;67.80;;;;;;6157838;23;20072;-78
2022/01/25 08:01:06;;;;;;;22.88;16.88;;;10.00;67.80;;;;;;6159899;23;20029;-76
2022/01/25 08:03:32;;;;;;;24.40;16.75;;;10.00;67.80;;;;;;6158370;23;20017;-76
2022/01/25 08:05:58;;;;;;;23.92;16.83;;;10.00;67.80;;;;;;6159630;23;20088;-76
2022/01/25 08:08:24;;;;;;;21.98;16.13;;;10.00;67.80;;;;;;6158160;23;20053;-77
2022/01/25 08:10:49;;;;;;;25.88;17.30;;;10.10;67.80;;;;;;6159208;23;20032;-78
2022/01/25 08:13:15;;;;;;;23.92;16.77;;;10.10;67.80;;;;;;6160053;23;20418;-77
2022/01/25 08:15:41;;;;;;;24.13;16.45;;;10.10;67.80;;;;;;6158319;23;20425;-76
2022/01/25 08:18:07;;;;;;;25.75;17.50;;;10.10;67.70;;;;;;6159419;23;20017;-77
2022/01/25 08:20:33;;;;;;;27.90;18.00;;;10.10;67.80;;;;;;6158227;23;20293;-79
2022/01/25 08:22:59;;;;;;;22.33;16.95;;;10.10;67.80;;;;;;6157872;23;20017;-76
2022/01/25 08:25:25;;;;;;;24.25;16.67;;;10.00;67.70;;;;;;6157959;23;20088;-77
2022/01/25 08:27:51;;;;;;;22.55;15.70;;;10.00;67.80;;;;;;6157863;23;20049;-78
2022/01/25 08:30:17;;;;;;;23.00;16.27;;;10.00;67.80;;;;;;6158906;23;20024;-78
2022/01/25 08:32:43;;;;;;;23.60;16.75;;;10.10;67.80;;;;;;6159475;23;20026;-78
2022/01/25 08:35:10;;;;;;;23.92;17.92;;;10.00;67.80;;;;;;6157783;23;20446;-77
2022/01/25 08:37:36;;;;;;;25.92;18.40;;;10.00;67.70;;;;;;6159170;23;20018;-76
2022/01/25 08:40:07;;;;;;;22.38;16.42;;;10.00;67.80;;;;;;6157755;23;20022;-78
2022/01/25 08:42:34;;;;;;;24.45;17.13;;;10.00;67.90;;;;;;6158697;23;20428;-77
2022/01/25 08:45:01;;;;;;;23.13;15.55;;;10.00;67.90;;;;;;6157964;23;20057;-78
2022/01/25 08:47:26;;;;;;;23.23;16.13;;;10.00;67.90;;;;;;6158137;23;20068;-76
2022/01/25 08:49:52;;;;;;;24.63;17.27;;;10.00;67.80;;;;;;6157950;23;20025;-79
2022/01/25 08:52:18;;;;;;;24.83;17.55;;;10.00;67.80;;;;;;6132808;23;20101;-77
2022/01/25 08:54:44;;;;;;;23.88;16.85;;;10.00;67.80;;;;;;6159536;23;20075;-78
2022/01/25 08:57:09;;;;;;;25.63;17.48;;;10.00;67.80;;;;;;6157437;23;20402;-79
2022/01/25 08:59:36;;;;;;;24.75;17.95;;;10.00;67.80;;;;;;6157391;23;20028;-78
2022/01/25 09:02:02;;;;;;;25.27;17.73;;;10.00;67.90;;;;;;6159031;23;20044;-77
2022/01/25 09:04:28;;;;;;;24.52;17.98;;;10.00;67.80;;;;;;6157535;23;20415;-78
2022/01/25 09:06:54;;;;;;;23.88;16.65;;;10.00;67.80;;;;;;6132806;23;20088;-78
2022/01/25 09:09:20;;;;;;;26.85;18.80;;;10.00;67.80;;;;;;6157856;23;20057;-78
2022/01/25 09:11:47;;;;;;;25.60;17.13;;;10.00;67.80;;;;;;6158731;23;20021;-79
2022/01/25 09:14:13;;;;;;;24.10;17.70;;;10.00;67.80;;;;;;6159423;23;20300;-77
2022/01/25 09:16:39;;;;;;;23.83;16.77;;;10.00;67.80;;;;;;6157754;23;20341;-78
2022/01/25 09:19:05;;;;;;;27.08;18.70;;;10.00;67.80;;;;;;6158634;23;20108;-77
2022/01/25 09:21:31;;;;;;;26.02;17.83;;;10.00;67.80;;;;;;6157099;23;20369;-77
2022/01/25 09:23:57;;;;;;;25.40;17.98;;;10.00;67.80;;;;;;6157696;23;20022;-77
2022/01/25 09:26:24;;;;;;;23.85;17.40;;;10.00;67.80;;;;;;6158496;23;20092;-78
2022/01/25 09:28:51;;;;;;;26.20;17.95;;;10.00;67.90;;;;;;6158734;23;20025;-79
2022/01/25 09:31:17;;;;;;;27.60;18.45;;;10.00;67.80;;;;;;6158135;23;20037;-77
2022/01/25 09:33:43;;;;;;;26.17;17.70;;;10.00;67.80;;;;;;6158826;23;20115;-77
2022/01/25 09:36:08;;;;;;;25.35;17.80;;;10.00;67.80;;;;;;6158719;23;20017;-77
2022/01/25 09:38:34;;;;;;;26.80;18.48;;;10.00;67.80;;;;;;6158460;23;20018;-77
2022/01/25 09:41:00;;;;;;;25.33;17.92;;;10.00;67.80;;;;;;6156837;23;20020;-78
2022/01/25 09:43:28;;;;;;;26.65;18.45;;;10.00;67.90;;;;;;6132892;23;20018;-77
2022/01/25 09:45:54;;;;;;;26.38;18.45;;;10.00;67.90;;;;;;6158703;23;20021;-79
2022/01/25 09:48:20;;;;;;;25.67;17.50;;;10.00;67.90;;;;;;6159317;23;20017;-78
2022/01/25 09:50:46;;;;;;;24.52;17.45;;;10.00;68.00;;;;;;6158214;23;20021;-77
2022/01/25 09:53:12;;;;;;;25.38;17.55;;;10.00;67.90;;;;;;6158821;23;20028;-77
2022/01/25 09:55:40;;;;;;;27.92;18.83;;;10.00;67.90;;;;;;6158806;23;20021;-78
2022/01/25 09:58:06;;;;;;;24.88;17.92;;;9.90;67.90;;;;;;6158238;23;20096;-77
2022/01/25 10:00:34;;;;;;;25.50;18.40;;;10.00;67.90;;;;;;6158566;23;20022;-77
2022/01/25 10:05:43;;;;;;;25.55;17.75;;;10.00;67.90;;;;;;6158376;23;20327;-76
2022/01/25 10:08:24;;;;;;;24.95;17.17;;;10.00;67.80;;;;;;6157302;23;20067;-78
2022/01/25 10:11:00;;;;;;;25.45;17.70;;;10.00;67.80;;;;;;6157347;23;20371;-76
2022/01/25 10:13:27;;;;;;;25.90;17.70;;;10.00;67.80;;;;;;6158463;23;20014;-78
2022/01/25 10:16:08;;;;;;;25.75;18.23;;;10.00;67.80;;;;;;6156966;23;20419;-78
2022/01/25 10:18:45;;;;;;;25.88;18.17;;;10.00;67.80;;;;;;6159190;23;20312;-79
2022/01/25 10:21:17;;;;;;;30.05;19.13;;;10.00;67.80;;;;;;6158398;23;20029;-77
2022/01/25 10:24:08;;;;;;;25.50;18.63;;;10.00;67.90;;;;;;6156463;23;20013;-78
2022/01/25 10:26:39;;;;;;;23.63;16.63;;;10.00;67.70;;;;;;6158680;23;20022;-78
2022/01/25 10:29:15;;;;;;;25.73;18.75;;;10.00;67.90;;;;;;6157032;23;20083;-79
2022/01/25 10:31:44;;;;;;;26.90;17.88;;;10.00;67.90;;;;;;6157621;23;20024;-76
2022/01/25 10:34:22;;;;;;;24.83;17.27;;;10.00;67.90;;;;;;6158069;23;20092;-77
2022/01/25 10:36:49;;;;;;;26.67;17.40;;;10.00;67.80;;;;;;6157918;23;20018;-77
2022/01/25 10:39:30;;;;;;;26.63;18.38;;;10.00;67.80;;;;;;6157689;23;20025;-78
2022/01/25 10:42:07;;;;;;;25.77;17.15;;;10.00;67.70;;;;;;6156440;23;20032;-77
2022/01/25 10:44:46;;;;;;;27.15;18.27;;;10.00;67.70;;;;;;6157843;23;20013;-76
2022/01/25 10:47:11;;;;;;;29.35;18.92;;;10.00;68.30;;;;;;6158188;23;20340;-77
2022/01/25 10:49:48;;;;;;;26.40;17.80;;;10.00;67.70;;;;;;6157788;23;20053;-78
2022/01/25 10:52:26;;;;;;;25.83;18.35;;;10.00;67.60;;;;;;6132529;23;20018;-77
2022/01/25 10:54:53;;;;;;;29.98;19.30;;;10.00;67.70;;;;;;6157917;23;20013;-78
2022/01/25 10:57:23;;;;;;;27.60;18.60;;;10.00;67.70;;;;;;6157937;23;20084;-78
2022/01/25 11:00:00;;;;;;;26.88;18.67;;;10.00;67.80;;;;;;6158392;23;20126;-76
2022/01/25 11:02:27;;;;;;;23.02;16.27;;;10.00;67.80;;;;;;6158830;23;20021;-78
2022/01/25 11:05:13;;;;;;;28.80;18.27;;;10.00;67.80;;;;;;6158159;23;20370;-76
2022/01/25 11:07:41;;;;;;;27.00;18.50;;;10.00;67.60;;;;;;6157876;23;20394;-78
2022/01/25 11:10:09;;;;;;;26.70;18.77;;;10.00;67.90;;;;;;6157761;23;20335;-77
2022/01/25 11:12:40;;;;;;;28.02;18.30;;;10.00;67.90;;;;;;6157955;23;20088;-76
2022/01/25 11:15:06;;;;;;;25.73;17.80;;;10.00;67.80;;;;;;6156937;23;20021;-77
2022/01/25 11:17:33;;;;;;;25.60;18.35;;;10.00;67.80;;;;;;6157718;23;20021;-78
2022/01/25 11:20:02;;;;;;;25.05;17.90;;;10.00;67.80;;;;;;6158953;23;20018;-76
2022/01/25 11:22:29;;;;;;;29.85;19.73;;;9.90;67.80;;;;;;6134994;23;20403;-77
2022/01/25 11:25:00;;;;;;;26.38;17.73;;;10.00;67.90;;;;;;6158844;23;20175;-79
2022/01/25 11:27:29;;;;;;;28.40;18.33;;;10.00;67.80;;;;;;6160041;23;20059;-77
2022/01/25 11:30:00;;;;;;;25.48;18.52;;;10.00;67.80;;;;;;6159617;23;20021;-78
2022/01/25 11:32:31;;;;;;;27.63;18.00;;;10.00;67.80;;;;;;6158601;23;20020;-79
2022/01/25 11:34:58;;;;;;;26.17;17.83;;;10.00;67.80;;;;;;6158156;23;20092;-77
2022/01/25 11:37:45;;;;;;;26.02;18.35;;;10.00;67.80;;;;;;6158883;23;20021;-79
2022/01/25 11:40:34;;;;;;;28.27;20.05;;;10.00;67.70;;;;;;6159860;23;20021;-76
2022/01/25 11:43:12;;;;;;;31.50;19.38;;;10.00;67.70;;;;;;6158299;23;20032;-77
2022/01/25 11:45:41;;;;;;;27.33;18.63;;;10.00;67.70;;;;;;6158534;23;20021;-77
2022/01/25 11:48:06;;;;;;;29.70;20.42;;;10.00;67.80;;;;;;6160293;23;20319;-79
2022/01/25 11:50:39;;;;;;;25.65;17.83;;;10.00;67.70;;;;;;6158400;23;20029;-77
2022/01/25 11:53:10;;;;;;;27.92;19.60;;;10.00;67.70;;;;;;6133210;23;20032;-77
2022/01/25 11:55:42;;;;;;;29.88;19.40;;;10.00;67.70;;;;;;6160157;23;20025;-77
2022/01/25 11:58:14;;;;;;;25.77;18.02;;;10.00;67.80;;;;;;6159359;23;20017;-76
2022/01/25 12:00:57;;;;;;;28.90;19.33;;;10.00;67.70;;;;;;6157864;23;20017;-76
2022/01/25 12:03:30;;;;;;;27.70;19.27;;;10.00;67.80;;;;;;6159253;23;20069;-77
2022/01/25 12:06:04;;;;;;;26.67;18.70;;;10.00;67.60;;;;;;6158186;23;20427;-78
2022/01/25 12:11:33;;;;;;;31.52;20.10;;;10.00;67.60;;;;;;6158033;23;20026;-79
2022/01/25 12:14:09;;;;;;;30.85;20.85;;;10.00;67.60;;;;;;6133955;23;20427;-78
2022/01/25 12:16:43;;;;;;;30.83;19.30;;;10.00;67.60;;;;;;6157719;23;20072;-78
2022/01/25 12:19:13;;;;;;;26.33;18.80;;;10.00;67.70;;;;;;6158286;23;20049;-76
2022/01/25 12:21:59;;;;;;;27.50;18.88;;;10.00;67.70;;;;;;6159117;23;20040;-77
2022/01/25 12:27:57;;;;;;;29.02;20.10;;;10.00;67.70;;;;;;6178707;23;20324;-78
2022/01/25 12:30:26;;;;;;;29.77;20.88;;;10.00;67.70;;;;;;6158639;23;20028;-77
2022/01/25 12:33:04;;;;;;;30.70;20.13;;;10.00;67.60;;;;;;6133368;23;20293;-77
2022/01/25 12:35:40;;;;;;;30.83;20.17;;;10.00;67.60;;;;;;6157487;23;20017;-76
2022/01/25 12:38:16;;;;;;;30.58;20.20;;;10.00;67.60;;;;;;6158621;23;20408;-77
2022/01/25 12:40:53;;;;;;;29.95;20.17;;;10.10;67.60;;;;;;6159188;23;20328;-78
2022/01/25 12:43:20;;;;;;;29.67;18.55;;;10.00;67.40;;;;;;6133199;23;20080;-76
2022/01/25 12:45:48;;;;;;;29.92;20.75;;;10.00;67.40;;;;;;6157876;23;20026;-78
2022/01/25 12:48:19;;;;;;;30.63;20.42;;;10.10;67.60;;;;;;6158867;23;20040;-76
2022/01/25 12:50:48;;;;;;;29.52;19.83;;;10.00;67.50;;;;;;6158521;23;20392;-76
2022/01/25 12:53:18;;;;;;;29.60;20.13;;;10.00;67.80;;;;;;6132793;23;20100;-79
2022/01/25 12:55:47;;;;;;;33.13;20.85;;;10.00;67.50;;;;;;6157692;23;20023;-76
2022/01/25 12:58:14;;;;;;;29.17;20.15;;;10.00;67.40;;;;;;6158711;23;20021;-77
2022/01/25 13:00:43;;;;;;;31.17;20.80;;;10.00;67.40;;;;;;6157283;23;20017;-76
2022/01/25 13:03:11;;;;;;;31.30;20.08;;;10.00;67.50;;;;;;6158305;23;20400;-77
2022/01/25 13:05:48;;;;;;;29.92;19.83;;;10.00;67.50;;;;;;6159623;23;20025;-76
2022/01/25 13:08:19;;;;;;;28.08;19.70;;;10.00;67.40;;;;;;6158372;23;20473;-77
2022/01/25 13:10:45;;;;;;;26.88;19.05;;;10.00;67.60;;;;;;6157958;23;20017;-79
2022/01/25 13:13:29;;;;;;;29.85;19.50;;;10.00;67.60;;;;;;6158728;23;20018;-78
2022/01/25 13:15:58;;;;;;;27.02;19.77;;;10.00;67.50;;;;;;6157930;23;20022;-77
2022/01/25 13:18:27;;;;;;;29.00;19.58;;;10.00;67.60;;;;;;6158409;23;20411;-79
2022/01/25 13:21:07;;;;;;;29.83;20.50;;;10.00;67.60;;;;;;6157926;23;20018;-76
2022/01/25 13:23:33;;;;;;;30.90;20.45;;;10.00;67.60;;;;;;6157503;23;20347;-77
2022/01/25 13:26:12;;;;;;;31.85;20.48;;;10.00;67.60;;;;;;6158428;23;20303;-78
2022/01/25 13:30:39;;;;;;;30.20;20.38;;;10.00;67.60;;;;;;6158040;23;20297;-77
2022/01/25 13:32:40;;;;;;;28.73;20.30;;;10.00;67.50;;;;;;6157091;23;20049;-76
2022/01/25 13:35:16;;;;;;;33.47;20.70;;;10.00;67.50;;;;;;6158533;23;20332;-76
2022/01/25 13:37:44;;;;;;;30.63;19.67;;;9.90;67.70;;;;;;6158771;23;20057;-77
2022/01/25 13:40:13;;;;;;;32.28;20.75;;;9.90;67.70;;;;;;6157560;23;20022;-79
2022/01/25 13:43:07;;;;;;;29.38;20.60;;;9.90;67.70;;;;;;6157442;23;20018;-79
2022/01/25 13:45:44;;;;;;;28.10;19.13;;;10.00;67.80;;;;;;6158039;23;20490;-76
2022/01/25 13:48:14;;;;;;;30.17;20.35;;;10.00;67.80;;;;;;6158560;23;20063;-78
2022/01/25 13:50:40;;;;;;;27.83;19.40;;;10.00;67.80;;;;;;6157218;23;20047;-80
2022/01/25 13:53:08;;;;;;;28.73;19.10;;;10.00;67.70;;;;;;6158348;23;20021;-78
2022/01/25 13:55:36;;;;;;;33.35;21.25;;;10.00;67.60;;;;;;6132164;23;20014;-78
2022/01/25 13:58:03;;;;;;;30.33;19.88;;;10.00;67.60;;;;;;6157625;23;20103;-77
2022/01/25 14:00:29;;;;;;;29.38;19.83;;;10.00;67.60;;;;;;6157123;23;20028;-78
2022/01/25 14:02:57;;;;;;;30.80;20.70;;;10.00;67.60;;;;;;6158082;23;20084;-78
2022/01/25 14:05:23;;;;;;;29.63;20.48;;;10.00;67.60;;;;;;6158207;23;20288;-77
2022/01/25 14:07:54;;;;;;;27.52;19.50;;;10.00;67.60;;;;;;6158766;23;20300;-77
2022/01/25 14:10:26;;;;;;;29.75;20.13;;;10.00;67.60;;;;;;6157980;23;20014;-78
2022/01/25 14:23:55;;;;;;;32.40;20.80;;;10.00;67.60;;;;;;6158115;23;20022;-78
2022/01/25 14:26:26;;;;;;;31.35;21.35;;;10.00;67.50;;;;;;6157157;23;20018;-76
2022/01/25 14:28:54;;;;;;;29.98;20.13;;;10.00;67.40;;;;;;6132138;23;20017;-77
2022/01/25 14:31:23;;;;;;;30.17;20.55;;;10.00;67.50;;;;;;6157917;23;20342;-76
2022/01/25 14:33:53;;;;;;;31.85;21.48;;;10.00;67.50;;;;;;6132676;23;20053;-76
2022/01/25 14:36:20;;;;;;;30.45;20.13;;;10.00;67.50;;;;;;6156513;23;20023;-77
2022/01/25 14:38:47;;;;;;;32.70;21.20;;;9.90;67.50;;;;;;6131876;23;20037;-76
2022/01/25 14:41:23;;;;;;;29.73;20.58;;;10.00;68.10;;;;;;6157174;23;20013;-77
2022/01/25 14:44:22;;;;;;;33.88;21.27;;;10.00;67.60;;;;;;6157358;23;20414;-76